createdAt,value
2023-05-21T00:01:08.276Z,3.90
2023-05-21T00:03:36.558Z,3.88
2023-05-21T00:06:04.250Z,4.20
2023-05-21T00:08:31.307Z,4.10
2023-05-21T00:10:58.079Z,4.17
2023-05-21T00:13:24.902Z,4.37
2023-05-21T00:15:51.853Z,4.37
2023-05-21T00:18:18.651Z,4.00
2023-05-21T00:20:46.070Z,3.93
2023-05-21T00:23:12.895Z,4.00
2023-05-21T00:25:39.603Z,4.30
2023-05-21T00:28:06.550Z,4.53
2023-05-21T00:30:33.285Z,4.03
2023-05-21T00:33:02.861Z,4.03
2023-05-21T00:37:56.511Z,4.00
2023-05-21T00:40:23.226Z,4.17
2023-05-21T00:42:50.159Z,4.20
2023-05-21T00:45:17.931Z,4.07
2023-05-21T00:47:45.482Z,4.17
2023-05-21T00:50:12.372Z,4.87
2023-05-21T00:52:42.353Z,3.77
2023-05-21T00:55:11.159Z,4.23
2023-05-21T00:57:39.455Z,4.30
2023-05-21T01:00:10.962Z,4.13
2023-05-21T01:02:38.410Z,4.03
2023-05-21T01:05:09.145Z,4.43
2023-05-21T01:07:39.106Z,4.27
2023-05-21T01:10:07.848Z,4.00
2023-05-21T01:12:35.896Z,3.97
2023-05-21T01:15:04.316Z,3.87
2023-05-21T01:17:32.187Z,4.47
2023-05-21T01:19:59.712Z,4.23
2023-05-21T01:22:29.376Z,4.13
2023-05-21T01:24:56.158Z,4.85
2023-05-21T01:27:23.326Z,4.00
2023-05-21T01:29:50.140Z,4.03
2023-05-21T01:32:32.036Z,4.13
2023-05-21T01:35:21.055Z,4.00
2023-05-21T01:37:58.263Z,3.90
2023-05-21T01:41:00.546Z,3.60
2023-05-21T01:43:31.763Z,4.00
2023-05-21T01:45:59.952Z,4.10
2023-05-21T01:48:29.113Z,4.27
2023-05-21T01:51:00.767Z,3.97
2023-05-21T01:53:27.714Z,3.57
2023-05-21T01:55:54.805Z,4.13
2023-05-21T01:58:23.125Z,4.00
2023-05-21T02:00:51.306Z,4.10
2023-05-21T02:03:19.797Z,3.97
2023-05-21T02:05:47.946Z,3.73
2023-05-21T02:08:15.553Z,4.07
2023-05-21T02:10:42.351Z,3.83
2023-05-21T02:13:09.391Z,3.70
2023-05-21T02:15:36.257Z,3.97
2023-05-21T02:18:03.623Z,3.70
2023-05-21T02:20:31.350Z,4.00
2023-05-21T02:22:58.105Z,3.50
2023-05-21T02:25:24.931Z,3.93
2023-05-21T02:27:54.182Z,3.50
2023-05-21T02:30:21.142Z,3.70
2023-05-21T02:32:49.028Z,3.60
2023-05-21T02:35:16.225Z,4.00
2023-05-21T02:37:44.478Z,3.97
2023-05-21T02:40:12.251Z,3.47
2023-05-21T02:42:40.538Z,3.90
2023-05-21T02:45:11.859Z,3.83
2023-05-21T02:47:39.748Z,3.60
2023-05-21T02:50:08.288Z,3.57
2023-05-21T02:52:35.116Z,3.47
2023-05-21T02:55:01.875Z,3.10
2023-05-21T02:57:28.724Z,3.30
2023-05-21T02:59:55.438Z,3.43
2023-05-21T03:02:22.316Z,3.27
2023-05-21T03:04:49.181Z,3.20
2023-05-21T03:07:19.291Z,3.40
2023-05-21T03:09:46.410Z,3.20
2023-05-21T03:12:13.340Z,3.37
2023-05-21T03:14:40.068Z,3.20
2023-05-21T03:17:08.053Z,3.00
2023-05-21T03:19:36.731Z,3.07
2023-05-21T03:22:04.747Z,3.10
2023-05-21T03:24:31.902Z,3.17
2023-05-21T03:27:01.743Z,3.20
2023-05-21T03:29:28.849Z,3.00
2023-05-21T03:31:55.968Z,2.73
2023-05-21T03:34:23.560Z,3.07
2023-05-21T03:36:51.210Z,3.07
2023-05-21T03:39:18.572Z,3.20
2023-05-21T03:41:46.744Z,3.03
2023-05-21T03:44:13.587Z,3.23
2023-05-21T03:46:40.412Z,3.30
2023-05-21T03:49:07.235Z,2.87
2023-05-21T03:51:33.924Z,2.97
2023-05-21T03:54:01.621Z,3.10
2023-05-21T03:56:28.866Z,2.93
2023-05-21T03:58:55.834Z,3.27
2023-05-21T04:01:22.584Z,3.20
2023-05-21T04:03:49.508Z,3.07
2023-05-21T04:06:17.185Z,2.93
2023-05-21T04:08:44.692Z,3.10
2023-05-21T04:11:11.525Z,2.80
2023-05-21T04:13:38.947Z,3.23
2023-05-21T04:16:09.179Z,2.83
2023-05-21T04:18:36.169Z,2.93
2023-05-21T04:21:02.840Z,2.80
2023-05-21T04:23:29.547Z,2.80
2023-05-21T04:25:58.691Z,2.97
2023-05-21T04:28:29.038Z,2.80
2023-05-21T04:30:56.696Z,2.97
2023-05-21T04:33:26.172Z,2.70
2023-05-21T04:35:53.081Z,2.60
2023-05-21T04:38:20.031Z,2.73
2023-05-21T04:40:54.738Z,2.80
2023-05-21T04:43:26.562Z,3.03
2023-05-21T04:45:57.223Z,2.83
2023-05-21T04:48:27.664Z,2.57
2023-05-21T04:50:56.113Z,2.40
2023-05-21T04:53:24.003Z,2.67
2023-05-21T04:55:50.861Z,2.60
2023-05-21T04:58:19.242Z,2.37
2023-05-21T05:00:47.412Z,2.47
2023-05-21T05:03:14.804Z,2.77
2023-05-21T05:05:42.126Z,2.37
2023-05-21T05:08:14.726Z,2.73
2023-05-21T05:10:43.188Z,2.53
2023-05-21T05:13:10.276Z,2.83
2023-05-21T05:15:37.558Z,2.83
2023-05-21T05:18:04.630Z,2.40
2023-05-21T05:20:33.850Z,2.00
2023-05-21T05:23:01.335Z,2.47
2023-05-21T05:25:28.014Z,2.40
2023-05-21T05:27:54.684Z,2.60
2023-05-21T05:30:21.531Z,2.60
2023-05-21T05:32:48.323Z,2.80
2023-05-21T05:35:15.243Z,2.80
2023-05-21T05:37:42.101Z,2.67
2023-05-21T05:40:09.263Z,3.10
2023-05-21T05:42:37.043Z,2.97
2023-05-21T05:45:04.028Z,3.00
2023-05-21T05:47:31.529Z,2.47
2023-05-21T05:49:58.463Z,2.93
2023-05-21T05:52:25.236Z,2.90
2023-05-21T05:54:51.950Z,3.07
2023-05-21T05:57:18.727Z,3.03
2023-05-21T05:59:45.636Z,2.87
2023-05-21T06:02:12.448Z,3.20
2023-05-21T06:04:39.813Z,2.67
2023-05-21T06:07:06.709Z,3.13
2023-05-21T06:09:33.381Z,2.87
2023-05-21T06:12:00.168Z,2.77
2023-05-21T06:14:27.024Z,2.70
2023-05-21T06:16:54.737Z,2.97
2023-05-21T06:19:23.187Z,2.83
2023-05-21T06:21:50.918Z,2.92
2023-05-21T06:24:17.677Z,2.50
2023-05-21T06:26:44.654Z,2.63
2023-05-21T06:29:14.793Z,3.03
2023-05-21T06:31:42.283Z,2.70
2023-05-21T06:34:14.368Z,2.87
2023-05-21T06:36:41.301Z,2.67
2023-05-21T06:39:08.252Z,2.70
2023-05-21T06:41:35.291Z,2.80
2023-05-21T06:44:03.748Z,2.80
2023-05-21T06:46:31.321Z,2.60
2023-05-21T06:48:59.260Z,2.60
2023-05-21T06:51:26.738Z,2.50
2023-05-21T06:53:53.563Z,2.40
2023-05-21T06:56:22.253Z,2.50
2023-05-21T06:58:48.931Z,2.50
2023-05-21T07:01:17.312Z,2.60
2023-05-21T07:03:45.741Z,2.57
2023-05-21T07:06:12.517Z,2.67
2023-05-21T07:08:39.200Z,3.50
2023-05-21T07:11:06.260Z,2.43
2023-05-21T07:13:35.722Z,2.60
2023-05-21T07:16:02.620Z,1.83
2023-05-21T07:18:29.874Z,2.30
2023-05-21T07:20:57.377Z,2.30
2023-05-21T07:23:24.369Z,2.63
2023-05-21T07:25:51.664Z,2.57
2023-05-21T07:28:21.726Z,2.23
2023-05-21T07:30:49.182Z,2.13
2023-05-21T07:33:24.348Z,3.00
2023-05-21T07:35:51.516Z,2.70
2023-05-21T07:38:18.261Z,2.50
2023-05-21T07:40:45.149Z,2.30
2023-05-21T07:43:15.096Z,2.50
2023-05-21T07:45:41.736Z,2.53
2023-05-21T07:48:10.367Z,2.50
2023-05-21T07:50:38.229Z,2.70
2023-05-21T07:53:05.241Z,2.50
2023-05-21T07:55:32.109Z,2.67
2023-05-21T07:58:00.530Z,2.80
2023-05-21T08:00:31.053Z,2.58
2023-05-21T08:02:58.348Z,2.50
2023-05-21T08:05:28.527Z,3.20
2023-05-21T08:07:57.682Z,2.60
2023-05-21T08:10:25.507Z,2.80
2023-05-21T08:12:52.740Z,2.60
2023-05-21T08:15:19.660Z,2.27
2023-05-21T08:17:46.405Z,2.50
2023-05-21T08:20:14.535Z,2.70
2023-05-21T08:22:45.913Z,2.67
2023-05-21T08:25:12.682Z,2.70
2023-05-21T08:27:39.491Z,2.40
2023-05-21T08:30:07.306Z,2.50
2023-05-21T08:32:34.128Z,2.47
2023-05-21T08:35:00.926Z,2.40
2023-05-21T08:37:27.768Z,2.23
2023-05-21T08:39:54.479Z,2.00
2023-05-21T08:42:42.683Z,2.70
2023-05-21T08:45:12.890Z,2.10
2023-05-21T08:47:42.496Z,2.27
2023-05-21T08:50:17.220Z,2.60
2023-05-21T08:52:44.066Z,2.10
2023-05-21T08:55:11.149Z,2.07
2023-05-21T08:57:43.166Z,2.07
2023-05-21T09:00:10.993Z,2.20
2023-05-21T09:02:40.974Z,2.23
2023-05-21T09:05:09.544Z,2.53
2023-05-21T09:08:14.496Z,2.20
2023-05-21T09:11:07.680Z,2.20
2023-05-21T09:13:39.174Z,2.47
2023-05-21T09:16:07.827Z,2.30
2023-05-21T09:18:35.161Z,2.20
2023-05-21T09:21:32.319Z,2.43
2023-05-21T09:24:03.136Z,2.40
2023-05-21T09:26:34.626Z,2.30
2023-05-21T09:29:05.156Z,2.30
2023-05-21T09:31:33.980Z,1.80
2023-05-21T09:34:01.648Z,2.20
2023-05-21T09:36:29.794Z,2.03
2023-05-21T09:39:00.472Z,2.27
2023-05-21T09:41:38.785Z,2.07
2023-05-21T09:44:06.367Z,2.40
2023-05-21T09:46:42.252Z,2.30
2023-05-21T09:49:26.752Z,1.90
2023-05-21T09:51:59.590Z,2.10
2023-05-21T09:54:31.573Z,2.10
2023-05-21T09:57:01.623Z,2.00
2023-05-21T09:59:39.399Z,1.80
2023-05-21T10:02:21.131Z,2.40
2023-05-21T10:04:56.946Z,2.40
2023-05-21T10:07:27.322Z,2.20
2023-05-21T10:09:58.651Z,2.30
2023-05-21T10:12:26.145Z,2.40
2023-05-21T10:15:21.023Z,2.50
2023-05-21T10:17:49.566Z,2.30
2023-05-21T10:20:17.602Z,2.20
2023-05-21T10:22:44.854Z,2.37
2023-05-21T10:25:13.503Z,1.87
2023-05-21T10:27:41.269Z,2.20
2023-05-21T10:30:08.846Z,2.30
2023-05-21T10:32:35.903Z,2.20
2023-05-21T10:35:02.926Z,2.20
2023-05-21T10:37:29.802Z,2.17
2023-05-21T10:39:57.268Z,2.20
2023-05-21T10:42:24.055Z,2.23
2023-05-21T10:45:21.914Z,2.10
2023-05-21T10:48:19.351Z,2.60
2023-05-21T10:51:05.086Z,2.67
2023-05-21T10:54:03.028Z,2.30
2023-05-21T10:56:39.192Z,2.00
2023-05-21T10:59:32.226Z,2.20
2023-05-21T11:01:59.780Z,2.40
2023-05-21T11:04:27.864Z,2.10
2023-05-21T11:06:54.905Z,2.17
2023-05-21T11:09:21.853Z,2.13
2023-05-21T11:11:54.075Z,2.10
2023-05-21T11:14:31.891Z,2.30
2023-05-21T11:17:07.596Z,2.10
2023-05-21T11:19:39.304Z,2.10
2023-05-21T11:22:26.555Z,2.27
2023-05-21T11:24:55.226Z,2.47
2023-05-21T11:27:33.958Z,2.30
2023-05-21T11:30:08.285Z,2.28
2023-05-21T11:32:39.916Z,2.10
2023-05-21T11:35:08.301Z,2.20
2023-05-21T11:37:36.076Z,2.23
2023-05-21T11:40:18.936Z,2.00
2023-05-21T11:42:50.078Z,2.27
2023-05-21T11:45:25.364Z,2.13
2023-05-21T11:47:58.787Z,2.43
2023-05-21T11:50:33.398Z,2.47
2023-05-21T11:53:00.857Z,2.23
2023-05-21T11:55:28.560Z,2.00
2023-05-21T11:57:55.771Z,2.30
2023-05-21T12:00:23.397Z,2.03
2023-05-21T12:02:54.422Z,2.20
2023-05-21T12:05:21.854Z,2.00
2023-05-21T12:07:50.399Z,2.37
2023-05-21T12:10:24.355Z,2.30
2023-05-21T12:12:57.650Z,2.47
2023-05-21T12:15:26.400Z,2.20
2023-05-21T12:17:54.474Z,2.40
2023-05-21T12:20:27.022Z,2.40
2023-05-21T12:22:54.532Z,2.13
2023-05-21T12:25:25.961Z,2.20
2023-05-21T12:27:58.002Z,2.13
2023-05-21T12:30:26.299Z,2.90
2023-05-21T12:32:53.179Z,2.37
2023-05-21T12:35:24.275Z,2.40
2023-05-21T12:37:51.763Z,2.27
2023-05-21T12:40:19.156Z,2.57
2023-05-21T12:42:46.033Z,2.40
2023-05-21T12:45:13.326Z,2.20
2023-05-21T12:47:40.189Z,2.40
2023-05-21T12:50:14.196Z,2.00
2023-05-21T12:52:43.243Z,2.20
2023-05-21T12:55:13.638Z,1.98
2023-05-21T12:57:40.414Z,2.17
2023-05-21T13:00:08.163Z,2.30
2023-05-21T13:02:39.815Z,2.30
2023-05-21T13:05:08.801Z,2.00
2023-05-21T13:07:38.746Z,2.47
2023-05-21T13:10:06.460Z,2.50
2023-05-21T13:12:34.320Z,2.57
2023-05-21T13:15:03.312Z,2.27
2023-05-21T13:17:30.841Z,2.30
2023-05-21T13:20:20.884Z,2.40
2023-05-21T13:22:49.612Z,2.27
2023-05-21T13:25:21.856Z,2.40
2023-05-21T13:27:49.820Z,2.60
2023-05-21T13:30:17.168Z,2.23
2023-05-21T13:32:44.630Z,2.20
2023-05-21T13:35:12.405Z,2.23
2023-05-21T13:37:41.587Z,2.40
2023-05-21T13:40:14.760Z,2.50
2023-05-21T13:42:42.064Z,2.40
2023-05-21T13:45:11.607Z,2.00
2023-05-21T13:47:40.883Z,2.50
2023-05-21T13:50:09.084Z,2.10
2023-05-21T13:52:36.494Z,2.20
2023-05-21T13:55:03.568Z,2.50
2023-05-21T13:57:31.263Z,2.33
2023-05-21T13:59:59.076Z,2.23
2023-05-21T14:02:26.196Z,2.50
2023-05-21T14:04:53.230Z,2.47
2023-05-21T14:07:19.992Z,2.37
2023-05-21T14:09:47.823Z,2.30
2023-05-21T14:12:16.007Z,2.47
2023-05-21T14:14:43.625Z,2.50
2023-05-21T14:17:10.548Z,2.67
2023-05-21T14:19:39.022Z,2.30
2023-05-21T14:22:09.282Z,2.70
2023-05-21T14:24:37.936Z,2.03
2023-05-21T14:27:04.994Z,2.57
2023-05-21T14:29:32.000Z,2.50
2023-05-21T14:31:58.906Z,2.43
2023-05-21T14:34:25.800Z,2.40
2023-05-21T14:36:55.590Z,2.30
2023-05-21T14:39:23.408Z,2.50
2023-05-21T14:41:50.497Z,2.23
2023-05-21T14:44:21.132Z,2.27
2023-05-21T14:46:48.961Z,2.47
2023-05-21T14:49:15.856Z,2.10
2023-05-21T14:51:44.053Z,2.37
2023-05-21T14:54:11.636Z,2.20
2023-05-21T14:56:39.865Z,2.50
2023-05-21T14:59:07.028Z,1.90
2023-05-21T15:01:34.153Z,2.20
2023-05-21T15:04:05.467Z,2.33
2023-05-21T15:06:32.484Z,2.67
2023-05-21T15:09:00.530Z,2.30
2023-05-21T15:11:31.750Z,2.10
2023-05-21T15:13:58.641Z,2.07
2023-05-21T15:16:25.723Z,2.53
2023-05-21T15:18:52.535Z,2.30
2023-05-21T15:21:19.635Z,2.20
2023-05-21T15:23:46.368Z,2.13
2023-05-21T15:26:13.124Z,2.20
2023-05-21T15:28:39.863Z,2.20
2023-05-21T15:31:06.614Z,2.20
2023-05-21T15:33:33.371Z,2.10
2023-05-21T15:36:00.279Z,2.13
2023-05-21T15:38:27.051Z,2.30
2023-05-21T15:40:54.367Z,2.33
2023-05-21T15:43:21.378Z,1.97
2023-05-21T15:45:48.141Z,1.93
2023-05-21T15:48:14.946Z,2.00
2023-05-21T15:50:42.555Z,1.90
2023-05-21T15:53:11.072Z,2.20
2023-05-21T15:55:38.841Z,2.10
2023-05-21T15:58:06.266Z,2.27
2023-05-21T16:00:34.140Z,1.70
2023-05-21T16:03:02.533Z,1.70
2023-05-21T16:05:29.389Z,2.10
2023-05-21T16:07:56.141Z,1.83
2023-05-21T16:10:23.314Z,2.00
2023-05-21T16:12:50.042Z,1.80
2023-05-21T16:15:16.873Z,2.00
2023-05-21T16:17:43.743Z,2.10
2023-05-21T16:20:11.255Z,2.00
2023-05-21T16:22:38.016Z,1.40
2023-05-21T16:25:05.153Z,1.90
2023-05-21T16:27:32.016Z,1.97
2023-05-21T16:29:58.763Z,2.07
2023-05-21T16:32:25.736Z,2.40
2023-05-21T16:34:56.974Z,2.00
2023-05-21T16:37:23.903Z,2.00
2023-05-21T16:39:50.824Z,2.23
2023-05-21T16:42:17.590Z,1.93
2023-05-21T16:44:45.341Z,2.00
2023-05-21T16:47:12.428Z,1.93
2023-05-21T16:49:39.212Z,2.03
2023-05-21T16:52:07.494Z,2.40
2023-05-21T16:54:36.273Z,2.20
2023-05-21T16:57:06.220Z,2.00
2023-05-21T16:59:33.390Z,2.00
2023-05-21T17:02:00.535Z,1.73
2023-05-21T17:04:32.741Z,2.20
2023-05-21T17:06:59.624Z,2.10
2023-05-21T17:09:27.813Z,2.07
2023-05-21T17:11:58.662Z,2.00
2023-05-21T17:14:33.854Z,1.90
2023-05-21T17:17:01.972Z,2.10
2023-05-21T17:19:28.822Z,2.00
2023-05-21T17:21:56.395Z,2.20
2023-05-21T17:24:27.444Z,1.53
2023-05-21T17:26:55.364Z,1.90
2023-05-21T17:29:23.486Z,1.83
2023-05-21T17:31:50.277Z,2.20
2023-05-21T17:34:18.375Z,1.90
2023-05-21T17:36:45.358Z,2.10
2023-05-21T17:39:12.049Z,2.03
2023-05-21T17:41:39.490Z,2.20
2023-05-21T17:44:06.255Z,2.00
2023-05-21T17:46:33.079Z,2.10
2023-05-21T17:49:00.806Z,1.83
2023-05-21T17:51:27.606Z,1.90
2023-05-21T17:53:54.402Z,2.10
2023-05-21T17:56:21.833Z,2.20
2023-05-21T17:58:50.389Z,2.30
2023-05-21T18:01:17.249Z,2.30
2023-05-21T18:03:44.046Z,2.00
2023-05-21T18:06:13.171Z,1.97
2023-05-21T18:08:39.829Z,1.90
2023-05-21T18:11:06.693Z,2.17
2023-05-21T18:13:33.469Z,2.33
2023-05-21T18:16:00.391Z,2.23
2023-05-21T18:18:27.193Z,2.53
2023-05-21T18:20:54.282Z,2.47
2023-05-21T18:23:21.289Z,2.37
2023-05-21T18:25:54.161Z,2.43
2023-05-21T18:28:20.964Z,2.20
2023-05-21T18:30:47.769Z,2.07
2023-05-21T18:33:15.584Z,2.03
2023-05-21T18:35:44.486Z,2.07
2023-05-21T18:38:11.650Z,2.30
2023-05-21T18:40:38.770Z,2.40
2023-05-21T18:43:06.613Z,2.03
2023-05-21T18:45:33.782Z,2.50
2023-05-21T18:48:00.671Z,2.47
2023-05-21T18:50:27.737Z,2.00
2023-05-21T18:52:56.281Z,2.17
2023-05-21T18:55:23.443Z,2.23
2023-05-21T18:57:51.838Z,2.10
2023-05-21T19:00:18.838Z,2.20
2023-05-21T19:02:50.732Z,2.37
2023-05-21T19:05:17.910Z,2.10
2023-05-21T19:07:44.760Z,2.00
2023-05-21T19:10:12.709Z,2.10
2023-05-21T19:12:41.078Z,2.00
2023-05-21T19:15:08.484Z,2.03
2023-05-21T19:17:36.587Z,2.07
2023-05-21T19:20:05.619Z,2.10
2023-05-21T19:22:32.545Z,2.30
2023-05-21T19:24:59.625Z,1.80
2023-05-21T19:27:29.205Z,2.30
2023-05-21T19:29:56.206Z,1.90
2023-05-21T19:32:26.197Z,2.23
2023-05-21T19:37:20.092Z,1.90
2023-05-21T19:39:50.320Z,2.20
2023-05-21T19:42:17.912Z,1.90
2023-05-21T19:44:45.253Z,2.13
2023-05-21T19:47:15.041Z,2.33
2023-05-21T19:49:46.818Z,1.80
2023-05-21T19:52:14.546Z,2.27
2023-05-21T19:54:44.783Z,2.23
2023-05-21T19:57:13.478Z,2.07
2023-05-21T19:59:43.919Z,2.27
2023-05-21T20:02:17.769Z,2.00
2023-05-21T20:04:45.620Z,2.03
2023-05-21T20:07:13.809Z,1.90
2023-05-21T20:09:41.119Z,2.20
2023-05-21T20:12:09.932Z,2.10
2023-05-21T20:14:36.772Z,1.90
2023-05-21T20:17:05.831Z,2.03
2023-05-21T20:19:33.107Z,2.05
2023-05-21T20:22:02.901Z,2.00
2023-05-21T20:24:29.912Z,2.17
2023-05-21T20:26:57.659Z,2.00
2023-05-21T20:29:25.375Z,1.87
2023-05-21T20:31:52.516Z,2.00
2023-05-21T20:34:20.857Z,1.93
2023-05-21T20:36:47.771Z,1.93
2023-05-21T20:39:18.104Z,1.93
2023-05-21T20:41:47.124Z,2.03
2023-05-21T20:44:20.091Z,1.90
2023-05-21T20:46:48.564Z,1.90
2023-05-21T20:49:15.495Z,1.73
2023-05-21T20:51:42.572Z,1.90
2023-05-21T20:54:11.247Z,1.80
2023-05-21T20:56:42.921Z,2.10
2023-05-21T20:59:17.836Z,1.87
2023-05-21T21:01:45.788Z,1.70
2023-05-21T21:04:15.455Z,1.83
2023-05-21T21:06:42.188Z,1.65
2023-05-21T21:09:09.041Z,2.27
2023-05-21T21:11:35.855Z,1.63
2023-05-21T21:14:02.925Z,2.33
2023-05-21T21:16:30.937Z,2.47
2023-05-21T21:18:57.902Z,1.80
2023-05-21T21:21:24.970Z,1.97
2023-05-21T21:23:51.710Z,1.97
2023-05-21T21:26:19.481Z,1.70
2023-05-21T21:28:46.732Z,2.00
2023-05-21T21:31:13.758Z,2.13
2023-05-21T21:33:40.531Z,2.10
2023-05-21T21:36:08.098Z,1.87
2023-05-21T21:38:34.957Z,1.70
2023-05-21T21:41:01.722Z,1.80
2023-05-21T21:43:28.443Z,1.90
2023-05-21T21:45:55.380Z,2.00
2023-05-21T21:48:22.257Z,2.17
2023-05-21T21:50:48.964Z,2.00
2023-05-21T21:53:15.822Z,2.13
2023-05-21T21:55:42.541Z,2.20
2023-05-21T21:58:09.298Z,1.97
2023-05-21T22:00:37.434Z,2.30
2023-05-21T22:03:04.541Z,2.10
2023-05-21T22:05:32.781Z,2.00
2023-05-21T22:07:59.721Z,1.90
2023-05-21T22:10:26.417Z,1.80
2023-05-21T22:12:53.119Z,1.90
2023-05-21T22:15:29.013Z,2.20
2023-05-21T22:17:55.976Z,1.93
2023-05-21T22:20:23.018Z,1.87
2023-05-21T22:22:49.939Z,1.70
2023-05-21T22:25:16.712Z,2.13
2023-05-21T22:27:44.073Z,1.80
2023-05-21T22:30:12.907Z,1.83
2023-05-21T22:32:39.854Z,1.90
2023-05-21T22:35:07.252Z,2.20
2023-05-21T22:37:34.422Z,2.03
2023-05-21T22:40:01.206Z,1.90
2023-05-21T22:42:28.000Z,2.23
2023-05-21T22:44:55.467Z,1.90
2023-05-21T22:47:24.013Z,1.97
2023-05-21T22:49:53.634Z,1.80
2023-05-21T22:52:23.791Z,1.85
2023-05-21T22:57:19.870Z,1.73
2023-05-21T22:59:46.620Z,1.90
2023-05-21T23:02:13.769Z,1.90
2023-05-21T23:04:44.357Z,2.13
2023-05-21T23:07:11.963Z,2.03
2023-05-21T23:09:38.708Z,1.83
2023-05-21T23:12:06.158Z,1.93
2023-05-21T23:14:32.903Z,2.17
2023-05-21T23:17:02.412Z,2.03
2023-05-21T23:19:29.773Z,1.88
2023-05-21T23:21:56.731Z,1.67
2023-05-21T23:24:23.632Z,1.83
2023-05-21T23:26:53.193Z,1.87
2023-05-21T23:29:23.329Z,1.80
2023-05-21T23:31:50.169Z,2.00
2023-05-21T23:34:16.925Z,2.10
2023-05-21T23:36:43.617Z,1.73
2023-05-21T23:39:10.326Z,1.97
2023-05-21T23:41:37.564Z,2.23
2023-05-21T23:44:04.450Z,2.10
2023-05-21T23:46:31.309Z,2.40
2023-05-21T23:48:58.071Z,2.10
2023-05-21T23:51:25.038Z,1.90
2023-05-21T23:53:51.766Z,1.87
2023-05-21T23:56:18.462Z,2.20
2023-05-21T23:58:45.292Z,2.10
